Terminal Aerodrome Forecast
Issued by NWS Detroit/Pontiac, MI

Home | Current Version | Previous Version | Text Only | Print | Product List | Glossary On
Versions: 1 2 3 4 5 6 7 8 9 10 11 12 13 14 15 16 17 18 19 20 21 22 23 24 25 26 27
261
FTUS43 KDTX 260214 AAA
TAFDTW
TAF AMD
KDTW 260214Z 2602/2706 32007KT P6SM BKN018 OVC040
     FM260400 30008KT P6SM OVC014
      TEMPO 2604/2608 OVC010
     FM261400 28007KT P6SM OVC024
     FM261800 24006KT P6SM BKN040
     FM270100 VRB03KT P6SM SCT045 OVC080=

USA.gov is the U.S. government's official web portal to all federal, state and local government web resources and services.